sensor_id;sensor_type;location;lat;lon;timestamp;P1;durP1;ratioP1;P2;durP2;ratioP2
17949;SDS011;9100;48.700;9.316;2023-02-04T00:00:06;2;;;1.9;;
17949;SDS011;9100;48.700;9.316;2023-02-04T00:00:34;2.5;;;2.4;;
17949;SDS011;9100;48.700;9.316;2023-02-04T00:01:05;2.5;;;2.4;;
17949;SDS011;9100;48.700;9.316;2023-02-04T00:02:05;2.5;;;2.4;;
17949;SDS011;9100;48.700;9.316;2023-02-04T00:03:05;2.5;;;2.4;;
17949;SDS011;9100;48.700;9.316;2023-02-04T00:04:05;2.5;;;2.4;;
17949;SDS011;9100;48.700;9.316;2023-02-04T00:05:05;2.5;;;2.4;;
17949;SDS011;9100;48.700;9.316;2023-02-04T00:05:34;1.9;;;1.8;;
17949;SDS011;9100;48.700;9.316;2023-02-04T00:06:06;1.9;;;1.8;;
17949;SDS011;9100;48.700;9.316;2023-02-04T00:07:05;1.9;;;1.8;;
17949;SDS011;9100;48.700;9.316;2023-02-04T00:08:05;1.9;;;1.8;;
17949;SDS011;9100;48.700;9.316;2023-02-04T00:09:05;1.9;;;1.8;;
17949;SDS011;9100;48.700;9.316;2023-02-04T00:10:05;1.9;;;1.8;;
17949;SDS011;9100;48.700;9.316;2023-02-04T00:10:35;2.6;;;2.2;;
17949;SDS011;9100;48.700;9.316;2023-02-04T00:11:06;2.6;;;2.2;;
17949;SDS011;9100;48.700;9.316;2023-02-04T00:12:05;2.6;;;2.2;;
17949;SDS011;9100;48.700;9.316;2023-02-04T00:13:05;2.6;;;2.2;;
17949;SDS011;9100;48.700;9.316;2023-02-04T00:14:05;2.6;;;2.2;;
17949;SDS011;9100;48.700;9.316;2023-02-04T00:15:06;2.6;;;2.2;;
17949;SDS011;9100;48.700;9.316;2023-02-04T00:15:34;1.8;;;1.7;;
17949;SDS011;9100;48.700;9.316;2023-02-04T00:16:05;1.8;;;1.7;;
17949;SDS011;9100;48.700;9.316;2023-02-04T00:17:05;1.8;;;1.7;;
17949;SDS011;9100;48.700;9.316;2023-02-04T00:18:05;1.8;;;1.7;;
17949;SDS011;9100;48.700;9.316;2023-02-04T00:19:06;1.8;;;1.7;;
17949;SDS011;9100;48.700;9.316;2023-02-04T00:20:05;1.8;;;1.7;;
17949;SDS011;9100;48.700;9.316;2023-02-04T00:20:34;1.8;;;1.7;;
17949;SDS011;9100;48.700;9.316;2023-02-04T00:21:05;1.8;;;1.7;;
17949;SDS011;9100;48.700;9.316;2023-02-04T00:22:05;1.8;;;1.7;;
17949;SDS011;9100;48.700;9.316;2023-02-04T00:23:05;1.8;;;1.7;;
17949;SDS011;9100;48.700;9.316;2023-02-04T00:24:05;1.8;;;1.7;;
17949;SDS011;9100;48.700;9.316;2023-02-04T00:25:05;1.8;;;1.7;;
17949;SDS011;9100;48.700;9.316;2023-02-04T00:25:34;2;;;1.8;;
17949;SDS011;9100;48.700;9.316;2023-02-04T00:26:05;2;;;1.8;;
17949;SDS011;9100;48.700;9.316;2023-02-04T00:27:05;2;;;1.8;;
17949;SDS011;9100;48.700;9.316;2023-02-04T00:28:05;2;;;1.8;;
17949;SDS011;9100;48.700;9.316;2023-02-04T00:29:06;2;;;1.8;;
17949;SDS011;9100;48.700;9.316;2023-02-04T00:30:05;2;;;1.8;;
17949;SDS011;9100;48.700;9.316;2023-02-04T00:30:34;2.2;;;2.1;;
17949;SDS011;9100;48.700;9.316;2023-02-04T00:31:05;2.2;;;2.1;;
17949;SDS011;9100;48.700;9.316;2023-02-04T00:32:05;2.2;;;2.1;;
17949;SDS011;9100;48.700;9.316;2023-02-04T00:33:05;2.2;;;2.1;;
17949;SDS011;9100;48.700;9.316;2023-02-04T00:34:05;2.2;;;2.1;;
17949;SDS011;9100;48.700;9.316;2023-02-04T00:35:05;2.2;;;2.1;;
17949;SDS011;9100;48.700;9.316;2023-02-04T00:35:34;1.6;;;1.6;;
17949;SDS011;9100;48.700;9.316;2023-02-04T00:36:05;1.6;;;1.6;;
17949;SDS011;9100;48.700;9.316;2023-02-04T00:37:06;1.6;;;1.6;;
17949;SDS011;9100;48.700;9.316;2023-02-04T00:38:05;1.6;;;1.6;;
17949;SDS011;9100;48.700;9.316;2023-02-04T00:39:05;1.6;;;1.6;;
17949;SDS011;9100;48.700;9.316;2023-02-04T00:40:05;1.6;;;1.6;;
17949;SDS011;9100;48.700;9.316;2023-02-04T00:40:34;1.8;;;1.7;;
17949;SDS011;9100;48.700;9.316;2023-02-04T00:41:05;1.8;;;1.7;;
17949;SDS011;9100;48.700;9.316;2023-02-04T00:42:05;1.8;;;1.7;;
17949;SDS011;9100;48.700;9.316;2023-02-04T00:43:05;1.8;;;1.7;;
17949;SDS011;9100;48.700;9.316;2023-02-04T00:44:05;1.8;;;1.7;;
17949;SDS011;9100;48.700;9.316;2023-02-04T00:45:05;1.8;;;1.7;;
17949;SDS011;9100;48.700;9.316;2023-02-04T00:45:34;1.6;;;1.6;;
17949;SDS011;9100;48.700;9.316;2023-02-04T00:46:06;1.6;;;1.6;;
17949;SDS011;9100;48.700;9.316;2023-02-04T00:47:05;1.6;;;1.6;;
17949;SDS011;9100;48.700;9.316;2023-02-04T00:48:06;1.6;;;1.6;;
17949;SDS011;9100;48.700;9.316;2023-02-04T00:49:05;1.6;;;1.6;;
17949;SDS011;9100;48.700;9.316;2023-02-04T00:50:05;1.6;;;1.6;;
17949;SDS011;9100;48.700;9.316;2023-02-04T00:50:34;3.5;;;1.5;;
17949;SDS011;9100;48.700;9.316;2023-02-04T00:51:05;3.5;;;1.5;;
17949;SDS011;9100;48.700;9.316;2023-02-04T00:52:05;3.5;;;1.5;;
17949;SDS011;9100;48.700;9.316;2023-02-04T00:53:05;3.5;;;1.5;;
17949;SDS011;9100;48.700;9.316;2023-02-04T00:54:05;3.5;;;1.5;;
17949;SDS011;9100;48.700;9.316;2023-02-04T00:55:05;3.5;;;1.5;;
17949;SDS011;9100;48.700;9.316;2023-02-04T00:55:35;1.4;;;1.3;;
17949;SDS011;9100;48.700;9.316;2023-02-04T00:56:05;1.4;;;1.3;;
17949;SDS011;9100;48.700;9.316;2023-02-04T00:57:06;1.4;;;1.3;;
17949;SDS011;9100;48.700;9.316;2023-02-04T00:58:05;1.4;;;1.3;;
17949;SDS011;9100;48.700;9.316;2023-02-04T00:59:05;1.4;;;1.3;;
17949;SDS011;9100;48.700;9.316;2023-02-04T01:00:05;1.4;;;1.3;;
17949;SDS011;9100;48.700;9.316;2023-02-04T01:00:34;2.5;;;1.6;;
17949;SDS011;9100;48.700;9.316;2023-02-04T01:01:05;2.5;;;1.6;;
17949;SDS011;9100;48.700;9.316;2023-02-04T01:02:05;2.5;;;1.6;;
17949;SDS011;9100;48.700;9.316;2023-02-04T01:03:05;2.5;;;1.6;;
17949;SDS011;9100;48.700;9.316;2023-02-04T01:04:06;2.5;;;1.6;;
17949;SDS011;9100;48.700;9.316;2023-02-04T01:05:05;2.5;;;1.6;;
17949;SDS011;9100;48.700;9.316;2023-02-04T01:05:34;1.6;;;1.5;;
17949;SDS011;9100;48.700;9.316;2023-02-04T01:06:05;1.6;;;1.5;;
17949;SDS011;9100;48.700;9.316;2023-02-04T01:07:05;1.6;;;1.5;;
17949;SDS011;9100;48.700;9.316;2023-02-04T01:08:06;1.6;;;1.5;;
17949;SDS011;9100;48.700;9.316;2023-02-04T01:09:05;1.6;;;1.5;;
17949;SDS011;9100;48.700;9.316;2023-02-04T01:10:05;1.6;;;1.5;;
17949;SDS011;9100;48.700;9.316;2023-02-04T01:10:34;1.4;;;1.3;;
17949;SDS011;9100;48.700;9.316;2023-02-04T01:11:05;1.4;;;1.3;;
17949;SDS011;9100;48.700;9.316;2023-02-04T01:12:05;1.4;;;1.3;;
17949;SDS011;9100;48.700;9.316;2023-02-04T01:13:05;1.4;;;1.3;;
17949;SDS011;9100;48.700;9.316;2023-02-04T01:14:05;1.4;;;1.3;;
17949;SDS011;9100;48.700;9.316;2023-02-04T01:15:05;1.4;;;1.3;;
17949;SDS011;9100;48.700;9.316;2023-02-04T01:15:35;1.6;;;1.5;;
17949;SDS011;9100;48.700;9.316;2023-02-04T01:16:05;1.6;;;1.5;;
17949;SDS011;9100;48.700;9.316;2023-02-04T01:17:05;1.6;;;1.5;;
17949;SDS011;9100;48.700;9.316;2023-02-04T01:18:05;1.6;;;1.5;;
17949;SDS011;9100;48.700;9.316;2023-02-04T01:19:05;1.6;;;1.5;;
17949;SDS011;9100;48.700;9.316;2023-02-04T01:20:05;1.6;;;1.5;;
17949;SDS011;9100;48.700;9.316;2023-02-04T01:20:34;3.5;;;1.6;;
17949;SDS011;9100;48.700;9.316;2023-02-04T01:21:05;3.5;;;1.6;;
17949;SDS011;9100;48.700;9.316;2023-02-04T01:22:05;3.5;;;1.6;;
17949;SDS011;9100;48.700;9.316;2023-02-04T01:23:05;3.5;;;1.6;;
17949;SDS011;9100;48.700;9.316;2023-02-04T01:24:05;3.5;;;1.6;;
17949;SDS011;9100;48.700;9.316;2023-02-04T01:25:05;3.5;;;1.6;;
17949;SDS011;9100;48.700;9.316;2023-02-04T01:25:36;1.4;;;1.4;;
17949;SDS011;9100;48.700;9.316;2023-02-04T01:26:05;1.4;;;1.4;;
17949;SDS011;9100;48.700;9.316;2023-02-04T01:27:05;1.4;;;1.4;;
17949;SDS011;9100;48.700;9.316;2023-02-04T01:28:05;1.4;;;1.4;;
17949;SDS011;9100;48.700;9.316;2023-02-04T01:29:05;1.4;;;1.4;;
17949;SDS011;9100;48.700;9.316;2023-02-04T01:30:06;1.4;;;1.4;;
17949;SDS011;9100;48.700;9.316;2023-02-04T01:30:36;1.7;;;1.4;;
17949;SDS011;9100;48.700;9.316;2023-02-04T01:31:05;1.7;;;1.4;;
17949;SDS011;9100;48.700;9.316;2023-02-04T01:32:05;1.7;;;1.4;;
17949;SDS011;9100;48.700;9.316;2023-02-04T01:33:06;1.7;;;1.4;;
17949;SDS011;9100;48.700;9.316;2023-02-04T01:34:05;1.7;;;1.4;;
17949;SDS011;9100;48.700;9.316;2023-02-04T01:35:06;1.7;;;1.4;;
17949;SDS011;9100;48.700;9.316;2023-02-04T01:35:34;2.9;;;1.7;;
17949;SDS011;9100;48.700;9.316;2023-02-04T01:36:05;2.9;;;1.7;;
17949;SDS011;9100;48.700;9.316;2023-02-04T01:37:05;2.9;;;1.7;;
17949;SDS011;9100;48.700;9.316;2023-02-04T01:38:05;2.9;;;1.7;;
17949;SDS011;9100;48.700;9.316;2023-02-04T01:39:06;2.9;;;1.7;;
17949;SDS011;9100;48.700;9.316;2023-02-04T01:40:05;2.9;;;1.7;;
17949;SDS011;9100;48.700;9.316;2023-02-04T01:40:34;1.8;;;1.7;;
17949;SDS011;9100;48.700;9.316;2023-02-04T01:41:05;1.8;;;1.7;;
17949;SDS011;9100;48.700;9.316;2023-02-04T01:42:06;1.8;;;1.7;;
17949;SDS011;9100;48.700;9.316;2023-02-04T01:43:05;1.8;;;1.7;;
17949;SDS011;9100;48.700;9.316;2023-02-04T01:44:05;1.8;;;1.7;;
17949;SDS011;9100;48.700;9.316;2023-02-04T01:45:05;1.8;;;1.7;;
17949;SDS011;9100;48.700;9.316;2023-02-04T01:45:34;2.1;;;2;;
17949;SDS011;9100;48.700;9.316;2023-02-04T01:46:06;2.1;;;2;;
17949;SDS011;9100;48.700;9.316;2023-02-04T01:47:05;2.1;;;2;;
17949;SDS011;9100;48.700;9.316;2023-02-04T01:48:05;2.1;;;2;;
17949;SDS011;9100;48.700;9.316;2023-02-04T01:49:05;2.1;;;2;;
17949;SDS011;9100;48.700;9.316;2023-02-04T01:50:05;2.1;;;2;;
17949;SDS011;9100;48.700;9.316;2023-02-04T01:50:34;2.2;;;1.8;;
17949;SDS011;9100;48.700;9.316;2023-02-04T01:51:06;2.2;;;1.8;;
17949;SDS011;9100;48.700;9.316;2023-02-04T01:52:05;2.2;;;1.8;;
17949;SDS011;9100;48.700;9.316;2023-02-04T01:53:05;2.2;;;1.8;;
17949;SDS011;9100;48.700;9.316;2023-02-04T01:54:05;2.2;;;1.8;;
17949;SDS011;9100;48.700;9.316;2023-02-04T01:55:09;2.2;;;1.8;;
17949;SDS011;9100;48.700;9.316;2023-02-04T01:55:34;2.3;;;1.8;;
17949;SDS011;9100;48.700;9.316;2023-02-04T01:56:10;2.3;;;1.8;;
17949;SDS011;9100;48.700;9.316;2023-02-04T01:57:05;2.3;;;1.8;;
17949;SDS011;9100;48.700;9.316;2023-02-04T01:58:07;2.3;;;1.8;;
17949;SDS011;9100;48.700;9.316;2023-02-04T01:59:09;2.3;;;1.8;;
17949;SDS011;9100;48.700;9.316;2023-02-04T02:00:05;2.3;;;1.8;;
17949;SDS011;9100;48.700;9.316;2023-02-04T02:00:35;1.8;;;1.7;;
17949;SDS011;9100;48.700;9.316;2023-02-04T02:01:05;1.8;;;1.7;;
17949;SDS011;9100;48.700;9.316;2023-02-04T02:02:35;1.8;;;1.7;;
17949;SDS011;9100;48.700;9.316;2023-02-04T02:03:05;1.8;;;1.7;;
17949;SDS011;9100;48.700;9.316;2023-02-04T02:04:05;1.8;;;1.7;;
17949;SDS011;9100;48.700;9.316;2023-02-04T02:05:05;1.8;;;1.7;;
17949;SDS011;9100;48.700;9.316;2023-02-04T02:05:35;1.6;;;1.2;;
17949;SDS011;9100;48.700;9.316;2023-02-04T02:06:05;1.6;;;1.2;;
17949;SDS011;9100;48.700;9.316;2023-02-04T02:07:05;1.6;;;1.2;;
17949;SDS011;9100;48.700;9.316;2023-02-04T02:08:06;1.6;;;1.2;;
17949;SDS011;9100;48.700;9.316;2023-02-04T02:09:05;1.6;;;1.2;;
17949;SDS011;9100;48.700;9.316;2023-02-04T02:10:06;1.6;;;1.2;;
17949;SDS011;9100;48.700;9.316;2023-02-04T02:10:34;1.6;;;1.5;;
17949;SDS011;9100;48.700;9.316;2023-02-04T02:11:05;1.6;;;1.5;;
17949;SDS011;9100;48.700;9.316;2023-02-04T02:12:05;1.6;;;1.5;;
17949;SDS011;9100;48.700;9.316;2023-02-04T02:13:07;1.6;;;1.5;;
17949;SDS011;9100;48.700;9.316;2023-02-04T02:14:05;1.6;;;1.5;;
17949;SDS011;9100;48.700;9.316;2023-02-04T02:15:05;1.6;;;1.5;;
17949;SDS011;9100;48.700;9.316;2023-02-04T02:15:35;1.2;;;0.9;;
17949;SDS011;9100;48.700;9.316;2023-02-04T02:16:05;1.2;;;0.9;;
17949;SDS011;9100;48.700;9.316;2023-02-04T02:17:05;1.2;;;0.9;;
17949;SDS011;9100;48.700;9.316;2023-02-04T02:18:05;1.2;;;0.9;;
17949;SDS011;9100;48.700;9.316;2023-02-04T02:19:05;1.2;;;0.9;;
17949;SDS011;9100;48.700;9.316;2023-02-04T02:20:05;1.2;;;0.9;;
17949;SDS011;9100;48.700;9.316;2023-02-04T02:20:35;1.1;;;1;;
17949;SDS011;9100;48.700;9.316;2023-02-04T02:21:06;1.1;;;1;;
17949;SDS011;9100;48.700;9.316;2023-02-04T02:22:08;1.1;;;1;;
17949;SDS011;9100;48.700;9.316;2023-02-04T02:23:06;1.1;;;1;;
17949;SDS011;9100;48.700;9.316;2023-02-04T02:24:22;1.1;;;1;;
17949;SDS011;9100;48.700;9.316;2023-02-04T02:25:07;1.1;;;1;;
17949;SDS011;9100;48.700;9.316;2023-02-04T02:25:34;1.1;;;0.9;;
17949;SDS011;9100;48.700;9.316;2023-02-04T02:26:05;1.1;;;0.9;;
17949;SDS011;9100;48.700;9.316;2023-02-04T02:27:06;1.1;;;0.9;;
17949;SDS011;9100;48.700;9.316;2023-02-04T02:28:08;1.1;;;0.9;;
17949;SDS011;9100;48.700;9.316;2023-02-04T02:29:05;1.1;;;0.9;;
17949;SDS011;9100;48.700;9.316;2023-02-04T02:30:06;1.1;;;0.9;;
17949;SDS011;9100;48.700;9.316;2023-02-04T02:30:34;1;;;0.9;;
17949;SDS011;9100;48.700;9.316;2023-02-04T02:31:06;1;;;0.9;;
17949;SDS011;9100;48.700;9.316;2023-02-04T02:32:05;1;;;0.9;;
17949;SDS011;9100;48.700;9.316;2023-02-04T02:33:05;1;;;0.9;;
17949;SDS011;9100;48.700;9.316;2023-02-04T02:34:05;1;;;0.9;;
17949;SDS011;9100;48.700;9.316;2023-02-04T02:35:05;1;;;0.9;;
17949;SDS011;9100;48.700;9.316;2023-02-04T02:35:34;3.8;;;1.2;;
17949;SDS011;9100;48.700;9.316;2023-02-04T02:36:05;3.8;;;1.2;;
17949;SDS011;9100;48.700;9.316;2023-02-04T02:37:05;3.8;;;1.2;;
17949;SDS011;9100;48.700;9.316;2023-02-04T02:38:05;3.8;;;1.2;;
17949;SDS011;9100;48.700;9.316;2023-02-04T02:39:05;3.8;;;1.2;;
17949;SDS011;9100;48.700;9.316;2023-02-04T02:40:05;3.8;;;1.2;;
17949;SDS011;9100;48.700;9.316;2023-02-04T02:40:34;1.8;;;1.2;;
17949;SDS011;9100;48.700;9.316;2023-02-04T02:41:05;1.8;;;1.2;;
17949;SDS011;9100;48.700;9.316;2023-02-04T02:42:05;1.8;;;1.2;;
17949;SDS011;9100;48.700;9.316;2023-02-04T02:43:05;1.8;;;1.2;;
17949;SDS011;9100;48.700;9.316;2023-02-04T02:44:05;1.8;;;1.2;;
17949;SDS011;9100;48.700;9.316;2023-02-04T02:45:06;1.8;;;1.2;;
17949;SDS011;9100;48.700;9.316;2023-02-04T02:45:34;1.9;;;1.3;;
17949;SDS011;9100;48.700;9.316;2023-02-04T02:46:05;1.9;;;1.3;;
17949;SDS011;9100;48.700;9.316;2023-02-04T02:47:05;1.9;;;1.3;;
17949;SDS011;9100;48.700;9.316;2023-02-04T02:48:05;1.9;;;1.3;;
17949;SDS011;9100;48.700;9.316;2023-02-04T02:49:05;1.9;;;1.3;;
17949;SDS011;9100;48.700;9.316;2023-02-04T02:50:05;1.9;;;1.3;;
17949;SDS011;9100;48.700;9.316;2023-02-04T02:50:35;2;;;1.3;;
17949;SDS011;9100;48.700;9.316;2023-02-04T02:51:05;2;;;1.3;;
17949;SDS011;9100;48.700;9.316;2023-02-04T02:52:07;2;;;1.3;;
17949;SDS011;9100;48.700;9.316;2023-02-04T02:53:08;2;;;1.3;;
17949;SDS011;9100;48.700;9.316;2023-02-04T02:54:07;2;;;1.3;;
17949;SDS011;9100;48.700;9.316;2023-02-04T02:55:06;2;;;1.3;;
17949;SDS011;9100;48.700;9.316;2023-02-04T02:55:35;3.2;;;1.1;;
17949;SDS011;9100;48.700;9.316;2023-02-04T02:56:05;3.2;;;1.1;;
17949;SDS011;9100;48.700;9.316;2023-02-04T02:57:09;3.2;;;1.1;;
17949;SDS011;9100;48.700;9.316;2023-02-04T02:58:08;3.2;;;1.1;;
17949;SDS011;9100;48.700;9.316;2023-02-04T02:59:13;3.2;;;1.1;;
17949;SDS011;9100;48.700;9.316;2023-02-04T03:00:11;3.2;;;1.1;;
17949;SDS011;9100;48.700;9.316;2023-02-04T03:00:34;2.4;;;1.3;;
17949;SDS011;9100;48.700;9.316;2023-02-04T03:01:06;2.4;;;1.3;;
17949;SDS011;9100;48.700;9.316;2023-02-04T03:02:06;2.4;;;1.3;;
17949;SDS011;9100;48.700;9.316;2023-02-04T03:03:06;2.4;;;1.3;;
17949;SDS011;9100;48.700;9.316;2023-02-04T03:04:05;2.4;;;1.3;;
17949;SDS011;9100;48.700;9.316;2023-02-04T03:05:05;2.4;;;1.3;;
17949;SDS011;9100;48.700;9.316;2023-02-04T03:05:37;2.2;;;1.4;;
17949;SDS011;9100;48.700;9.316;2023-02-04T03:06:06;2.2;;;1.4;;
17949;SDS011;9100;48.700;9.316;2023-02-04T03:07:05;2.2;;;1.4;;
17949;SDS011;9100;48.700;9.316;2023-02-04T03:08:06;2.2;;;1.4;;
17949;SDS011;9100;48.700;9.316;2023-02-04T03:09:06;2.2;;;1.4;;
17949;SDS011;9100;48.700;9.316;2023-02-04T03:10:05;2.2;;;1.4;;
17949;SDS011;9100;48.700;9.316;2023-02-04T03:10:35;4.7;;;1.1;;
17949;SDS011;9100;48.700;9.316;2023-02-04T03:11:05;4.7;;;1.1;;
17949;SDS011;9100;48.700;9.316;2023-02-04T03:12:05;4.7;;;1.1;;
17949;SDS011;9100;48.700;9.316;2023-02-04T03:13:05;4.7;;;1.1;;
17949;SDS011;9100;48.700;9.316;2023-02-04T03:14:06;4.7;;;1.1;;
17949;SDS011;9100;48.700;9.316;2023-02-04T03:15:05;4.7;;;1.1;;
17949;SDS011;9100;48.700;9.316;2023-02-04T03:15:34;2.2;;;1.2;;
17949;SDS011;9100;48.700;9.316;2023-02-04T03:16:05;2.2;;;1.2;;
17949;SDS011;9100;48.700;9.316;2023-02-04T03:17:05;2.2;;;1.2;;
17949;SDS011;9100;48.700;9.316;2023-02-04T03:18:05;2.2;;;1.2;;
17949;SDS011;9100;48.700;9.316;2023-02-04T03:19:05;2.2;;;1.2;;
17949;SDS011;9100;48.700;9.316;2023-02-04T03:20:07;2.2;;;1.2;;
17949;SDS011;9100;48.700;9.316;2023-02-04T03:20:34;3.2;;;1.3;;
17949;SDS011;9100;48.700;9.316;2023-02-04T03:21:05;3.2;;;1.3;;
17949;SDS011;9100;48.700;9.316;2023-02-04T03:22:05;3.2;;;1.3;;
17949;SDS011;9100;48.700;9.316;2023-02-04T03:23:06;3.2;;;1.3;;
17949;SDS011;9100;48.700;9.316;2023-02-04T03:24:05;3.2;;;1.3;;
17949;SDS011;9100;48.700;9.316;2023-02-04T03:25:06;3.2;;;1.3;;
17949;SDS011;9100;48.700;9.316;2023-02-04T03:25:34;2.3;;;1.2;;
17949;SDS011;9100;48.700;9.316;2023-02-04T03:26:05;2.3;;;1.2;;
17949;SDS011;9100;48.700;9.316;2023-02-04T03:27:05;2.3;;;1.2;;
17949;SDS011;9100;48.700;9.316;2023-02-04T03:28:05;2.3;;;1.2;;
17949;SDS011;9100;48.700;9.316;2023-02-04T03:29:05;2.3;;;1.2;;
17949;SDS011;9100;48.700;9.316;2023-02-04T03:30:05;2.3;;;1.2;;
17949;SDS011;9100;48.700;9.316;2023-02-04T03:30:34;3.4;;;1.1;;
17949;SDS011;9100;48.700;9.316;2023-02-04T03:31:05;3.4;;;1.1;;
17949;SDS011;9100;48.700;9.316;2023-02-04T03:32:05;3.4;;;1.1;;
17949;SDS011;9100;48.700;9.316;2023-02-04T03:33:05;3.4;;;1.1;;
17949;SDS011;9100;48.700;9.316;2023-02-04T03:34:05;3.4;;;1.1;;
17949;SDS011;9100;48.700;9.316;2023-02-04T03:35:05;3.4;;;1.1;;
17949;SDS011;9100;48.700;9.316;2023-02-04T03:35:34;3.6;;;1.4;;
17949;SDS011;9100;48.700;9.316;2023-02-04T03:36:05;3.6;;;1.4;;
17949;SDS011;9100;48.700;9.316;2023-02-04T03:37:06;3.6;;;1.4;;
17949;SDS011;9100;48.700;9.316;2023-02-04T03:38:05;3.6;;;1.4;;
17949;SDS011;9100;48.700;9.316;2023-02-04T03:39:05;3.6;;;1.4;;
17949;SDS011;9100;48.700;9.316;2023-02-04T03:40:06;3.6;;;1.4;;
17949;SDS011;9100;48.700;9.316;2023-02-04T03:40:35;3.5;;;1.7;;
17949;SDS011;9100;48.700;9.316;2023-02-04T03:41:05;3.5;;;1.7;;
17949;SDS011;9100;48.700;9.316;2023-02-04T03:42:05;3.5;;;1.7;;
17949;SDS011;9100;48.700;9.316;2023-02-04T03:43:05;3.5;;;1.7;;
17949;SDS011;9100;48.700;9.316;2023-02-04T03:44:05;3.5;;;1.7;;
17949;SDS011;9100;48.700;9.316;2023-02-04T03:45:05;3.5;;;1.7;;
17949;SDS011;9100;48.700;9.316;2023-02-04T03:45:35;1.3;;;1.2;;
17949;SDS011;9100;48.700;9.316;2023-02-04T03:46:05;1.3;;;1.2;;
17949;SDS011;9100;48.700;9.316;2023-02-04T03:47:06;1.3;;;1.2;;
17949;SDS011;9100;48.700;9.316;2023-02-04T03:48:05;1.3;;;1.2;;
17949;SDS011;9100;48.700;9.316;2023-02-04T03:49:05;1.3;;;1.2;;
17949;SDS011;9100;48.700;9.316;2023-02-04T03:50:05;1.3;;;1.2;;
17949;SDS011;9100;48.700;9.316;2023-02-04T03:50:35;3.8;;;1.6;;
17949;SDS011;9100;48.700;9.316;2023-02-04T03:51:06;3.8;;;1.6;;
17949;SDS011;9100;48.700;9.316;2023-02-04T03:52:05;3.8;;;1.6;;
17949;SDS011;9100;48.700;9.316;2023-02-04T03:53:05;3.8;;;1.6;;
17949;SDS011;9100;48.700;9.316;2023-02-04T03:54:05;3.8;;;1.6;;
17949;SDS011;9100;48.700;9.316;2023-02-04T03:55:05;3.8;;;1.6;;
17949;SDS011;9100;48.700;9.316;2023-02-04T03:55:34;7.6;;;1.7;;
17949;SDS011;9100;48.700;9.316;2023-02-04T03:56:05;7.6;;;1.7;;
17949;SDS011;9100;48.700;9.316;2023-02-04T03:57:05;7.6;;;1.7;;
17949;SDS011;9100;48.700;9.316;2023-02-04T03:58:05;7.6;;;1.7;;
17949;SDS011;9100;48.700;9.316;2023-02-04T03:59:05;7.6;;;1.7;;
17949;SDS011;9100;48.700;9.316;2023-02-04T04:00:05;7.6;;;1.7;;
17949;SDS011;9100;48.700;9.316;2023-02-04T04:00:35;5.1;;;1.7;;
17949;SDS011;9100;48.700;9.316;2023-02-04T04:01:05;5.1;;;1.7;;
17949;SDS011;9100;48.700;9.316;2023-02-04T04:02:05;5.1;;;1.7;;
17949;SDS011;9100;48.700;9.316;2023-02-04T04:03:05;5.1;;;1.7;;
17949;SDS011;9100;48.700;9.316;2023-02-04T04:04:06;5.1;;;1.7;;
17949;SDS011;9100;48.700;9.316;2023-02-04T04:05:06;5.1;;;1.7;;
17949;SDS011;9100;48.700;9.316;2023-02-04T04:05:34;2.4;;;1.8;;
17949;SDS011;9100;48.700;9.316;2023-02-04T04:06:05;2.4;;;1.8;;
17949;SDS011;9100;48.700;9.316;2023-02-04T04:07:05;2.4;;;1.8;;
17949;SDS011;9100;48.700;9.316;2023-02-04T04:08:05;2.4;;;1.8;;
17949;SDS011;9100;48.700;9.316;2023-02-04T04:09:05;2.4;;;1.8;;
17949;SDS011;9100;48.700;9.316;2023-02-04T04:10:05;2.4;;;1.8;;
17949;SDS011;9100;48.700;9.316;2023-02-04T04:10:34;3;;;1.7;;
17949;SDS011;9100;48.700;9.316;2023-02-04T04:11:05;3;;;1.7;;
17949;SDS011;9100;48.700;9.316;2023-02-04T04:12:05;3;;;1.7;;
17949;SDS011;9100;48.700;9.316;2023-02-04T04:13:07;3;;;1.7;;
17949;SDS011;9100;48.700;9.316;2023-02-04T04:14:05;3;;;1.7;;
17949;SDS011;9100;48.700;9.316;2023-02-04T04:15:05;3;;;1.7;;
17949;SDS011;9100;48.700;9.316;2023-02-04T04:15:34;3.3;;;2;;
17949;SDS011;9100;48.700;9.316;2023-02-04T04:16:05;3.3;;;2;;
17949;SDS011;9100;48.700;9.316;2023-02-04T04:17:05;3.3;;;2;;
17949;SDS011;9100;48.700;9.316;2023-02-04T04:18:07;3.3;;;2;;
17949;SDS011;9100;48.700;9.316;2023-02-04T04:19:05;3.3;;;2;;
17949;SDS011;9100;48.700;9.316;2023-02-04T04:20:05;3.3;;;2;;
17949;SDS011;9100;48.700;9.316;2023-02-04T04:20:35;8.9;;;2.6;;
17949;SDS011;9100;48.700;9.316;2023-02-04T04:21:05;8.9;;;2.6;;
17949;SDS011;9100;48.700;9.316;2023-02-04T04:22:05;8.9;;;2.6;;
17949;SDS011;9100;48.700;9.316;2023-02-04T04:23:05;8.9;;;2.6;;
17949;SDS011;9100;48.700;9.316;2023-02-04T04:24:05;8.9;;;2.6;;
17949;SDS011;9100;48.700;9.316;2023-02-04T04:25:05;8.9;;;2.6;;
17949;SDS011;9100;48.700;9.316;2023-02-04T04:25:34;3.9;;;2.4;;
17949;SDS011;9100;48.700;9.316;2023-02-04T04:26:05;3.9;;;2.4;;
17949;SDS011;9100;48.700;9.316;2023-02-04T04:27:05;3.9;;;2.4;;
17949;SDS011;9100;48.700;9.316;2023-02-04T04:28:05;3.9;;;2.4;;
17949;SDS011;9100;48.700;9.316;2023-02-04T04:29:05;3.9;;;2.4;;
17949;SDS011;9100;48.700;9.316;2023-02-04T04:30:05;3.9;;;2.4;;
17949;SDS011;9100;48.700;9.316;2023-02-04T04:30:35;3.6;;;1.7;;
17949;SDS011;9100;48.700;9.316;2023-02-04T04:31:05;3.6;;;1.7;;
17949;SDS011;9100;48.700;9.316;2023-02-04T04:32:05;3.6;;;1.7;;
17949;SDS011;9100;48.700;9.316;2023-02-04T04:33:05;3.6;;;1.7;;
17949;SDS011;9100;48.700;9.316;2023-02-04T04:34:05;3.6;;;1.7;;
17949;SDS011;9100;48.700;9.316;2023-02-04T04:35:05;3.6;;;1.7;;
17949;SDS011;9100;48.700;9.316;2023-02-04T04:35:35;4.7;;;1.6;;
17949;SDS011;9100;48.700;9.316;2023-02-04T04:36:06;4.7;;;1.6;;
17949;SDS011;9100;48.700;9.316;2023-02-04T04:37:06;4.7;;;1.6;;
17949;SDS011;9100;48.700;9.316;2023-02-04T04:38:06;4.7;;;1.6;;
17949;SDS011;9100;48.700;9.316;2023-02-04T04:39:05;4.7;;;1.6;;
17949;SDS011;9100;48.700;9.316;2023-02-04T04:40:05;4.7;;;1.6;;
17949;SDS011;9100;48.700;9.316;2023-02-04T04:40:34;2.8;;;1.5;;
17949;SDS011;9100;48.700;9.316;2023-02-04T04:41:05;2.8;;;1.5;;
17949;SDS011;9100;48.700;9.316;2023-02-04T04:42:05;2.8;;;1.5;;
17949;SDS011;9100;48.700;9.316;2023-02-04T04:43:05;2.8;;;1.5;;
17949;SDS011;9100;48.700;9.316;2023-02-04T04:44:05;2.8;;;1.5;;
17949;SDS011;9100;48.700;9.316;2023-02-04T04:45:07;2.8;;;1.5;;
17949;SDS011;9100;48.700;9.316;2023-02-04T04:45:36;3.1;;;1.9;;
17949;SDS011;9100;48.700;9.316;2023-02-04T04:46:05;3.1;;;1.9;;
17949;SDS011;9100;48.700;9.316;2023-02-04T04:47:05;3.1;;;1.9;;
17949;SDS011;9100;48.700;9.316;2023-02-04T04:48:06;3.1;;;1.9;;
17949;SDS011;9100;48.700;9.316;2023-02-04T04:49:05;3.1;;;1.9;;
17949;SDS011;9100;48.700;9.316;2023-02-04T04:50:05;3.1;;;1.9;;
17949;SDS011;9100;48.700;9.316;2023-02-04T04:50:34;5.3;;;1.9;;
17949;SDS011;9100;48.700;9.316;2023-02-04T04:51:05;5.3;;;1.9;;
17949;SDS011;9100;48.700;9.316;2023-02-04T04:52:05;5.3;;;1.9;;
17949;SDS011;9100;48.700;9.316;2023-02-04T04:53:05;5.3;;;1.9;;
17949;SDS011;9100;48.700;9.316;2023-02-04T04:54:06;5.3;;;1.9;;
17949;SDS011;9100;48.700;9.316;2023-02-04T04:55:05;5.3;;;1.9;;
17949;SDS011;9100;48.700;9.316;2023-02-04T04:55:34;4.7;;;1.7;;
17949;SDS011;9100;48.700;9.316;2023-02-04T04:56:05;4.7;;;1.7;;
17949;SDS011;9100;48.700;9.316;2023-02-04T04:57:05;4.7;;;1.7;;
17949;SDS011;9100;48.700;9.316;2023-02-04T04:58:06;4.7;;;1.7;;
17949;SDS011;9100;48.700;9.316;2023-02-04T04:59:05;4.7;;;1.7;;
17949;SDS011;9100;48.700;9.316;2023-02-04T05:00:06;4.7;;;1.7;;
17949;SDS011;9100;48.700;9.316;2023-02-04T05:00:35;4.4;;;1.8;;
17949;SDS011;9100;48.700;9.316;2023-02-04T05:01:05;4.4;;;1.8;;
17949;SDS011;9100;48.700;9.316;2023-02-04T05:02:05;4.4;;;1.8;;
17949;SDS011;9100;48.700;9.316;2023-02-04T05:03:05;4.4;;;1.8;;
17949;SDS011;9100;48.700;9.316;2023-02-04T05:04:05;4.4;;;1.8;;
17949;SDS011;9100;48.700;9.316;2023-02-04T05:05:05;4.4;;;1.8;;
17949;SDS011;9100;48.700;9.316;2023-02-04T05:05:35;5.8;;;2.2;;
17949;SDS011;9100;48.700;9.316;2023-02-04T05:06:06;5.8;;;2.2;;
17949;SDS011;9100;48.700;9.316;2023-02-04T05:07:05;5.8;;;2.2;;
17949;SDS011;9100;48.700;9.316;2023-02-04T05:08:05;5.8;;;2.2;;
17949;SDS011;9100;48.700;9.316;2023-02-04T05:09:05;5.8;;;2.2;;
17949;SDS011;9100;48.700;9.316;2023-02-04T05:10:05;5.8;;;2.2;;
17949;SDS011;9100;48.700;9.316;2023-02-04T05:10:34;5.1;;;2.1;;
17949;SDS011;9100;48.700;9.316;2023-02-04T05:11:05;5.1;;;2.1;;
17949;SDS011;9100;48.700;9.316;2023-02-04T05:12:06;5.1;;;2.1;;
17949;SDS011;9100;48.700;9.316;2023-02-04T05:13:05;5.1;;;2.1;;
17949;SDS011;9100;48.700;9.316;2023-02-04T05:14:05;5.1;;;2.1;;
17949;SDS011;9100;48.700;9.316;2023-02-04T05:15:05;5.1;;;2.1;;
17949;SDS011;9100;48.700;9.316;2023-02-04T05:15:35;4.2;;;1.8;;
17949;SDS011;9100;48.700;9.316;2023-02-04T05:16:06;4.2;;;1.8;;